createdAt,value
2022-12-19T00:02:38.873Z,53.50
2022-12-19T00:05:42.140Z,49.63
2022-12-19T00:08:45.843Z,48.38
2022-12-19T00:11:48.456Z,51.25
2022-12-19T00:14:50.101Z,51.30
2022-12-19T00:17:51.619Z,48.53
2022-12-19T00:21:00.643Z,53.35
2022-12-19T00:24:05.187Z,50.67
2022-12-19T00:27:21.633Z,50.00
2022-12-19T00:30:23.207Z,49.53
2022-12-19T00:33:24.739Z,54.58
2022-12-19T00:36:31.156Z,55.65
2022-12-19T00:39:32.700Z,51.58
2022-12-19T00:42:34.229Z,56.20
2022-12-19T00:45:38.582Z,51.15
2022-12-19T00:48:41.197Z,48.28
2022-12-19T00:51:42.734Z,54.92
2022-12-19T00:54:44.307Z,49.65
2022-12-19T00:57:46.835Z,45.85
2022-12-19T01:00:48.498Z,49.83
2022-12-19T01:04:19.111Z,48.20
2022-12-19T01:07:12.324Z,47.55
2022-12-19T01:10:13.919Z,49.95
2022-12-19T01:13:17.495Z,53.78
2022-12-19T01:16:19.166Z,48.17
2022-12-19T01:19:21.858Z,48.22
2022-12-19T01:22:23.403Z,47.95
2022-12-19T01:25:24.934Z,48.83
2022-12-19T01:28:26.913Z,58.38
2022-12-19T01:31:28.611Z,53.42
2022-12-19T01:34:30.246Z,51.35
2022-12-19T01:37:31.765Z,52.00
2022-12-19T01:40:34.371Z,56.90
2022-12-19T01:44:00.111Z,56.78
2022-12-19T01:47:02.119Z,54.15
2022-12-19T01:50:04.031Z,52.47
2022-12-19T01:53:08.517Z,51.30
2022-12-19T01:56:10.981Z,54.38
2022-12-19T01:59:20.733Z,54.63
2022-12-19T02:02:35.321Z,53.73
2022-12-19T02:05:39.062Z,57.22
2022-12-19T02:08:41.935Z,56.83
2022-12-19T02:11:43.465Z,52.53
2022-12-19T02:14:45.092Z,55.08
2022-12-19T02:18:06.623Z,49.65
2022-12-19T02:21:33.540Z,51.97
2022-12-19T02:24:37.889Z,43.20
2022-12-19T02:28:05.365Z,44.90
2022-12-19T02:31:32.660Z,45.28
2022-12-19T02:34:45.185Z,47.00
2022-12-19T02:38:24.060Z,46.75
2022-12-19T02:41:44.634Z,45.35
2022-12-19T02:44:50.401Z,43.55
2022-12-19T02:47:52.530Z,42.95
2022-12-19T02:50:54.081Z,47.70
2022-12-19T02:53:55.733Z,43.72
2022-12-19T02:57:11.981Z,43.88
2022-12-19T03:00:18.956Z,44.08
2022-12-19T03:03:28.943Z,45.58
2022-12-19T03:06:49.315Z,30.85
2022-12-19T03:10:08.587Z,42.78
2022-12-19T03:13:16.034Z,43.00
2022-12-19T03:16:17.624Z,45.85
2022-12-19T03:19:19.331Z,45.95
2022-12-19T03:22:20.975Z,41.20
2022-12-19T03:25:24.132Z,45.03
2022-12-19T03:28:47.987Z,41.80
2022-12-19T03:31:51.275Z,46.75
2022-12-19T03:34:59.590Z,44.50
2022-12-19T03:38:04.032Z,46.45
2022-12-19T03:41:08.648Z,48.95
2022-12-19T03:44:13.683Z,48.78
2022-12-19T03:47:22.726Z,49.63
2022-12-19T03:50:30.678Z,45.00
2022-12-19T03:53:56.283Z,44.53
2022-12-19T03:57:08.833Z,51.47
2022-12-19T04:00:16.206Z,47.85
2022-12-19T04:03:19.104Z,50.72
2022-12-19T04:06:21.824Z,49.00
2022-12-19T04:09:24.072Z,45.58
2022-12-19T04:12:32.330Z,50.80
2022-12-19T04:15:52.547Z,50.00
2022-12-19T04:19:16.559Z,51.88
2022-12-19T04:22:36.957Z,51.28
2022-12-19T04:25:46.254Z,48.53
2022-12-19T04:28:55.633Z,53.55
2022-12-19T04:31:57.391Z,48.13
2022-12-19T04:34:58.999Z,52.80
2022-12-19T04:38:00.724Z,53.67
2022-12-19T04:41:02.264Z,55.70
2022-12-19T04:44:03.962Z,54.33
2022-12-19T04:47:05.581Z,48.70
2022-12-19T04:50:07.310Z,50.13
2022-12-19T04:53:08.889Z,53.15
2022-12-19T04:56:10.548Z,52.10
2022-12-19T04:59:12.131Z,51.50
2022-12-19T05:02:13.860Z,51.63
2022-12-19T05:05:16.532Z,54.05
2022-12-19T05:08:18.095Z,51.25
2022-12-19T05:11:20.143Z,53.05
2022-12-19T05:14:21.770Z,52.25
2022-12-19T05:17:23.355Z,51.38
2022-12-19T05:20:24.892Z,53.90
2022-12-19T05:23:26.650Z,54.63
2022-12-19T05:26:28.244Z,55.38
2022-12-19T05:29:29.790Z,54.60
2022-12-19T05:32:34.751Z,57.33
2022-12-19T05:35:36.896Z,54.55
2022-12-19T05:38:38.647Z,55.25
2022-12-19T05:41:40.193Z,63.42
2022-12-19T05:44:41.735Z,52.22
2022-12-19T05:47:46.476Z,59.05
2022-12-19T05:50:50.033Z,57.70
2022-12-19T05:53:51.625Z,60.78
2022-12-19T05:56:53.184Z,63.30
2022-12-19T05:59:54.693Z,59.67
2022-12-19T06:02:56.537Z,56.63
2022-12-19T06:06:10.177Z,56.22
2022-12-19T06:09:11.768Z,55.10
2022-12-19T06:12:13.289Z,58.35
2022-12-19T06:15:17.330Z,49.13
2022-12-19T06:18:18.869Z,52.10
2022-12-19T06:21:23.595Z,51.72
2022-12-19T06:24:25.921Z,53.13
2022-12-19T06:27:27.464Z,50.38
2022-12-19T06:30:29.030Z,57.80
2022-12-19T06:33:32.478Z,55.20
2022-12-19T06:36:34.029Z,50.22
2022-12-19T06:39:35.653Z,54.50
2022-12-19T06:42:37.206Z,56.25
2022-12-19T06:45:38.765Z,47.97
2022-12-19T06:48:40.454Z,48.40
2022-12-19T06:51:42.096Z,50.28
2022-12-19T06:54:43.701Z,51.45
2022-12-19T06:57:46.439Z,46.28
2022-12-19T07:00:48.192Z,46.35
2022-12-19T07:03:50.358Z,47.92
2022-12-19T07:06:51.968Z,45.30
2022-12-19T07:09:53.599Z,43.13
2022-12-19T07:12:55.283Z,42.80
2022-12-19T07:16:00.957Z,43.80
2022-12-19T07:19:02.764Z,40.58
2022-12-19T07:22:05.021Z,43.95
2022-12-19T07:25:07.309Z,38.60
2022-12-19T07:28:09.252Z,43.63
2022-12-19T07:31:11.198Z,41.28
2022-12-19T07:34:12.728Z,39.58
2022-12-19T07:37:14.292Z,41.67
2022-12-19T07:40:16.512Z,37.15
2022-12-19T07:43:18.544Z,40.85
2022-12-19T07:46:21.590Z,36.47
2022-12-19T07:49:23.199Z,36.42
2022-12-19T07:52:24.881Z,36.78
2022-12-19T07:55:27.353Z,36.97
2022-12-19T07:58:28.874Z,35.25
2022-12-19T08:01:30.564Z,36.03
2022-12-19T08:04:32.589Z,37.45
2022-12-19T08:07:34.163Z,34.08
2022-12-19T08:10:35.737Z,38.22
2022-12-19T08:13:42.007Z,35.55
2022-12-19T08:17:18.726Z,35.90
2022-12-19T08:20:11.412Z,39.03
2022-12-19T08:23:13.079Z,36.00
2022-12-19T08:26:24.672Z,33.17
2022-12-19T08:29:26.955Z,36.60
2022-12-19T08:32:36.210Z,38.35
2022-12-19T08:35:37.810Z,34.17
2022-12-19T08:38:39.766Z,33.80
2022-12-19T08:41:41.315Z,39.20
2022-12-19T08:44:43.146Z,37.53
2022-12-19T08:47:45.684Z,38.25
2022-12-19T08:50:56.663Z,36.47
2022-12-19T08:53:58.238Z,35.63
2022-12-19T08:57:02.987Z,35.97
2022-12-19T09:00:06.034Z,38.15
2022-12-19T09:03:09.268Z,34.85
2022-12-19T09:06:19.099Z,36.78
2022-12-19T09:09:21.078Z,38.35
2022-12-19T09:12:22.815Z,36.17
2022-12-19T09:15:24.495Z,34.03
2022-12-19T09:18:26.130Z,40.40
2022-12-19T09:21:29.298Z,40.40
2022-12-19T09:24:30.982Z,36.05
2022-12-19T09:28:25.950Z,32.53
2022-12-19T09:31:16.278Z,38.92
2022-12-19T09:34:18.787Z,35.35
2022-12-19T09:37:44.621Z,34.78
2022-12-19T09:55:04.953Z,30.58
2022-12-19T10:23:46.264Z,28.63
2022-12-19T10:27:09.048Z,27.02
2022-12-19T10:30:31.797Z,28.42
2022-12-19T10:34:29.348Z,26.67
2022-12-19T10:37:49.724Z,28.63
2022-12-19T10:41:16.989Z,30.27
2022-12-19T10:44:31.564Z,30.02
2022-12-19T10:47:45.592Z,29.90
2022-12-19T10:51:06.288Z,31.58
2022-12-19T10:54:09.026Z,26.75
2022-12-19T10:57:22.762Z,25.75
2022-12-19T11:00:24.427Z,27.92
2022-12-19T11:03:26.199Z,27.90
2022-12-19T11:06:41.785Z,28.98
2022-12-19T11:10:07.085Z,24.60
2022-12-19T11:19:28.647Z,27.58
2022-12-19T11:23:51.300Z,26.67
2022-12-19T11:29:38.395Z,26.23
2022-12-19T11:30:06.169Z,27.00
2022-12-19T11:30:43.544Z,28.15
2022-12-19T11:34:50.178Z,27.25
2022-12-19T11:38:00.290Z,24.83
2022-12-19T11:41:33.537Z,32.08
2022-12-19T11:45:14.409Z,31.98
2022-12-19T11:51:37.422Z,27.17
2022-12-19T11:54:59.065Z,24.48
2022-12-19T11:58:00.617Z,28.30
2022-12-19T12:01:10.987Z,30.23
2022-12-19T12:04:46.992Z,22.00
2022-12-19T12:10:15.329Z,24.67
2022-12-19T12:17:06.616Z,23.35
2022-12-19T12:28:50.600Z,23.95
2022-12-19T12:31:17.624Z,22.10
2022-12-19T12:31:31.016Z,22.75
2022-12-19T12:31:44.389Z,24.48
2022-12-19T12:31:49.678Z,24.13
2022-12-19T12:35:32.898Z,21.88
2022-12-19T12:38:16.385Z,20.35
2022-12-19T12:41:15.001Z,21.13
2022-12-19T12:44:17.619Z,19.90
2022-12-19T12:47:29.255Z,19.80
2022-12-19T12:50:33.377Z,18.05
2022-12-19T12:53:42.743Z,19.10
2022-12-19T12:56:46.563Z,21.25
2022-12-19T13:00:08.745Z,16.67
2022-12-19T13:03:15.724Z,19.55
2022-12-19T13:06:31.610Z,18.98
2022-12-19T13:09:36.702Z,19.48
2022-12-19T13:12:59.784Z,18.80
2022-12-19T13:16:40.020Z,17.60
2022-12-19T13:20:17.209Z,21.05
2022-12-19T13:23:33.788Z,19.88
2022-12-19T13:26:50.016Z,20.65
2022-12-19T13:30:00.528Z,17.08
2022-12-19T13:33:02.029Z,16.00
2022-12-19T13:39:46.531Z,16.13
2022-12-19T13:40:02.472Z,18.77
2022-12-19T13:43:25.824Z,17.83
2022-12-19T13:46:43.399Z,15.98
2022-12-19T13:49:45.140Z,19.65
2022-12-19T13:52:50.865Z,18.45
2022-12-19T13:56:00.343Z,16.08
2022-12-19T13:59:04.921Z,18.25
2022-12-19T14:02:15.547Z,18.77
2022-12-19T14:10:07.605Z,20.45
2022-12-19T14:13:49.046Z,16.08
2022-12-19T14:16:18.276Z,20.90
2022-12-19T14:19:25.066Z,18.63
2022-12-19T14:22:27.232Z,19.10
2022-12-19T14:28:14.535Z,17.40
2022-12-19T14:29:09.261Z,14.75
2022-12-19T14:33:39.980Z,16.38
2022-12-19T14:36:10.648Z,18.33
2022-12-19T14:39:23.669Z,18.20
2022-12-19T14:43:57.659Z,18.92
2022-12-19T14:54:01.703Z,15.63
2022-12-19T14:54:04.972Z,17.80
2022-12-19T14:54:30.494Z,21.85
2022-12-19T14:56:59.140Z,18.42
2022-12-19T15:00:04.646Z,18.77
2022-12-19T15:03:30.796Z,18.60
2022-12-19T15:07:07.028Z,17.75
2022-12-19T15:11:05.453Z,19.08
2022-12-19T15:14:51.989Z,21.98
2022-12-19T15:17:16.546Z,18.55
2022-12-19T15:20:21.812Z,15.80
2022-12-19T15:23:23.686Z,18.33
2022-12-19T15:26:38.385Z,20.05
2022-12-19T15:29:40.349Z,20.65
2022-12-19T15:32:42.285Z,13.95
2022-12-19T15:35:44.883Z,14.73
2022-12-19T15:38:46.453Z,17.60
2022-12-19T15:41:51.452Z,16.25
2022-12-19T15:44:55.665Z,23.65
2022-12-19T15:47:57.321Z,15.23
2022-12-19T15:50:59.017Z,15.63
2022-12-19T15:54:38.205Z,17.90
2022-12-19T15:57:36.313Z,15.70
2022-12-19T16:00:39.217Z,12.02
2022-12-19T16:03:41.021Z,20.90
2022-12-19T16:06:42.919Z,15.60
2022-12-19T16:09:44.560Z,16.33
2022-12-19T16:12:50.836Z,13.48
2022-12-19T16:15:54.174Z,13.18
2022-12-19T16:18:55.730Z,13.82
2022-12-19T16:21:58.383Z,12.93
2022-12-19T16:25:00.605Z,15.38
2022-12-19T16:28:04.569Z,16.25
2022-12-19T16:31:15.396Z,13.23
2022-12-19T16:34:20.146Z,14.80
2022-12-19T16:37:23.595Z,12.73
2022-12-19T16:40:28.870Z,15.27
2022-12-19T16:43:35.413Z,17.88
2022-12-19T16:46:37.542Z,13.65
2022-12-19T16:50:14.019Z,13.27
2022-12-19T16:53:55.001Z,15.45
2022-12-19T17:01:05.585Z,13.10
2022-12-19T17:04:42.087Z,13.88
2022-12-19T17:11:38.395Z,13.48
2022-12-19T17:15:23.539Z,15.27
2022-12-19T17:19:06.739Z,16.35
2022-12-19T17:22:42.264Z,16.23
2022-12-19T17:25:56.654Z,16.63
2022-12-19T17:29:09.267Z,16.15
2022-12-19T17:32:24.040Z,11.85
2022-12-19T17:35:39.715Z,15.02
2022-12-19T17:38:55.028Z,13.95
2022-12-19T17:42:04.371Z,17.67
2022-12-19T17:45:08.294Z,18.15
2022-12-19T17:48:32.270Z,25.15
2022-12-19T17:58:36.121Z,14.98
2022-12-19T18:01:48.306Z,15.30
2022-12-19T18:05:07.515Z,13.43
2022-12-19T18:08:34.447Z,13.73
2022-12-19T18:16:20.179Z,14.43
2022-12-19T18:24:08.701Z,11.55
2022-12-19T18:37:39.250Z,12.48
2022-12-19T18:41:15.443Z,12.48
2022-12-19T18:48:59.979Z,11.52
2022-12-19T18:59:49.147Z,11.95
2022-12-19T19:03:22.434Z,13.50
2022-12-19T19:10:38.882Z,14.20
2022-12-19T19:17:34.520Z,11.77
2022-12-19T19:20:39.444Z,10.10
2022-12-19T19:23:51.435Z,10.45
2022-12-19T19:26:53.387Z,12.52
2022-12-19T19:29:54.911Z,12.60
2022-12-19T19:33:15.037Z,11.95
2022-12-19T19:36:24.413Z,10.93
2022-12-19T19:39:27.690Z,14.13
2022-12-19T19:42:29.438Z,10.48
2022-12-19T19:45:31.198Z,12.23
2022-12-19T19:48:32.935Z,13.00
2022-12-19T19:51:34.512Z,13.27
2022-12-19T19:54:36.078Z,12.75
2022-12-19T19:57:37.651Z,14.18
2022-12-19T20:00:39.747Z,11.55
2022-12-19T20:03:42.996Z,12.73
2022-12-19T20:06:44.878Z,12.50
2022-12-19T20:09:46.455Z,11.23
2022-12-19T20:12:48.034Z,11.32
2022-12-19T20:15:50.491Z,11.77
2022-12-19T20:18:53.161Z,12.48
2022-12-19T20:21:54.782Z,11.82
2022-12-19T20:24:57.309Z,12.88
2022-12-19T20:27:58.827Z,12.68
2022-12-19T20:31:01.404Z,9.10
2022-12-19T20:34:03.015Z,11.00
2022-12-19T20:37:05.792Z,8.98
2022-12-19T20:40:08.140Z,14.00
2022-12-19T20:43:09.823Z,10.88
2022-12-19T20:46:17.486Z,14.32
2022-12-19T20:49:19.078Z,10.93
2022-12-19T20:52:20.653Z,9.68
2022-12-19T20:55:22.333Z,11.70
2022-12-19T20:58:24.143Z,10.75
2022-12-19T21:01:25.852Z,12.40
2022-12-19T21:04:27.825Z,8.32
2022-12-19T21:07:29.741Z,10.98
2022-12-19T21:10:31.346Z,8.43
2022-12-19T21:13:33.845Z,7.93
2022-12-19T21:16:36.790Z,9.15
2022-12-19T21:19:38.464Z,11.32
2022-12-19T21:22:40.094Z,10.60
2022-12-19T21:25:41.889Z,10.15
2022-12-19T21:28:44.510Z,13.50
2022-12-19T21:31:46.328Z,10.57
2022-12-19T21:34:48.109Z,8.82
2022-12-19T21:37:51.810Z,8.98
2022-12-19T21:40:53.327Z,10.30
2022-12-19T21:43:55.906Z,7.82
2022-12-19T21:46:57.548Z,8.75
2022-12-19T21:49:59.209Z,8.02
2022-12-19T21:53:01.080Z,11.55
2022-12-19T21:56:25.148Z,8.02
2022-12-19T21:59:26.720Z,9.68
2022-12-19T22:02:28.343Z,10.55
2022-12-19T22:05:29.945Z,8.73
2022-12-19T22:08:32.329Z,12.23
2022-12-19T22:11:35.962Z,8.63
2022-12-19T22:14:38.003Z,8.82
2022-12-19T22:17:39.559Z,8.82
2022-12-19T22:20:42.757Z,10.52
2022-12-19T22:23:44.643Z,9.15
2022-12-19T22:26:46.271Z,10.30
2022-12-19T22:29:47.834Z,10.35
2022-12-19T22:32:49.385Z,9.43
2022-12-19T22:35:51.028Z,7.22
2022-12-19T22:38:52.830Z,11.43
2022-12-19T22:41:54.389Z,10.50
2022-12-19T22:44:56.384Z,7.78
2022-12-19T22:47:58.001Z,8.38
2022-12-19T22:50:59.585Z,7.13
2022-12-19T22:54:01.839Z,8.82
2022-12-19T22:57:03.407Z,6.63
2022-12-19T23:00:11.950Z,8.82
2022-12-19T23:03:13.763Z,6.82
2022-12-19T23:06:16.285Z,8.32
2022-12-19T23:09:18.609Z,7.55
2022-12-19T23:12:20.156Z,7.82
2022-12-19T23:15:21.749Z,6.72
2022-12-19T23:18:23.464Z,7.03
2022-12-19T23:21:26.245Z,5.38
2022-12-19T23:24:27.780Z,7.03
2022-12-19T23:27:29.383Z,5.32
2022-12-19T23:30:30.938Z,5.20
2022-12-19T23:33:33.989Z,6.05
2022-12-19T23:37:09.754Z,9.45
2022-12-19T23:39:57.274Z,7.65
2022-12-19T23:42:58.812Z,6.60
2022-12-19T23:46:04.958Z,7.10
2022-12-19T23:49:06.653Z,7.05
2022-12-19T23:52:08.276Z,7.18
2022-12-19T23:55:10.177Z,9.20
2022-12-19T23:58:15.636Z,8.27
